createdAt,value
2022-11-28T00:01:41.541Z,86.31
2022-11-28T00:04:08.582Z,87.90
2022-11-28T00:06:41.730Z,87.12
2022-11-28T00:09:08.896Z,87.26
2022-11-28T00:11:35.784Z,87.35
2022-11-28T00:14:02.698Z,87.18
2022-11-28T00:16:29.779Z,87.10
2022-11-28T00:18:56.644Z,86.79
2022-11-28T00:21:23.923Z,86.80
2022-11-28T00:23:50.826Z,86.81
2022-11-28T00:26:26.813Z,86.22
2022-11-28T00:28:54.953Z,86.54
2022-11-28T00:31:25.173Z,86.30
2022-11-28T00:33:52.059Z,87.77
2022-11-28T00:36:19.808Z,86.84
2022-11-28T00:38:47.014Z,86.85
2022-11-28T00:41:16.433Z,86.87
2022-11-28T00:43:44.760Z,86.98
2022-11-28T00:46:12.925Z,87.10
2022-11-28T00:48:40.378Z,87.07
2022-11-28T00:51:08.228Z,87.05
2022-11-28T00:53:35.728Z,87.20
2022-11-28T00:56:06.090Z,86.94
2022-11-28T00:58:34.634Z,86.97
2022-11-28T01:01:23.946Z,86.93
2022-11-28T01:03:52.618Z,87.26
2022-11-28T01:06:22.322Z,87.13
2022-11-28T01:08:51.535Z,87.36
2022-11-28T01:11:19.142Z,87.00
2022-11-28T01:13:45.967Z,87.21
2022-11-28T01:16:13.078Z,87.47
2022-11-28T01:18:39.927Z,87.52
2022-11-28T01:21:08.031Z,87.66
2022-11-28T01:23:35.400Z,87.80
2022-11-28T01:26:02.517Z,87.84
2022-11-28T01:28:29.715Z,87.85
2022-11-28T01:30:56.702Z,87.59
2022-11-28T01:33:23.538Z,87.60
2022-11-28T01:35:58.547Z,87.56
2022-11-28T01:38:26.006Z,87.75
2022-11-28T01:40:53.739Z,87.84
2022-11-28T01:43:20.741Z,88.12
2022-11-28T01:45:47.586Z,88.55
2022-11-28T01:48:18.322Z,88.69
2022-11-28T01:50:48.080Z,89.22
2022-11-28T01:53:15.110Z,89.33
2022-11-28T01:55:55.971Z,89.22
2022-11-28T01:58:23.400Z,89.44
2022-11-28T02:00:50.247Z,89.20
2022-11-28T02:03:31.068Z,89.11
2022-11-28T02:05:58.360Z,89.03
2022-11-28T02:08:25.630Z,88.94
2022-11-28T02:11:07.645Z,88.24
2022-11-28T02:13:40.381Z,88.30
2022-11-28T02:16:11.625Z,88.22
2022-11-28T02:19:16.623Z,88.02
2022-11-28T02:22:01.257Z,88.20
2022-11-28T02:24:33.602Z,88.02
2022-11-28T02:27:19.926Z,87.90
2022-11-28T02:29:58.684Z,87.79
2022-11-28T02:32:37.049Z,87.90
2022-11-28T02:35:15.542Z,87.68
2022-11-28T02:37:50.963Z,87.96
2022-11-28T02:40:36.852Z,87.89
2022-11-28T02:43:41.904Z,87.72
2022-11-28T02:46:28.325Z,87.70
2022-11-28T02:49:13.405Z,88.23
2022-11-28T02:51:52.184Z,88.49
2022-11-28T02:54:22.047Z,88.71
2022-11-28T02:56:50.525Z,89.19
2022-11-28T02:59:43.270Z,89.25
2022-11-28T03:02:24.131Z,89.63
2022-11-28T03:05:07.857Z,89.66
2022-11-28T03:07:46.555Z,90.07
2022-11-28T03:10:35.939Z,90.11
2022-11-28T03:13:13.315Z,90.14
2022-11-28T03:16:25.680Z,90.27
2022-11-28T03:18:58.040Z,89.85
2022-11-28T03:21:52.614Z,89.90
2022-11-28T03:24:25.920Z,89.85
2022-11-28T03:26:57.774Z,89.93
2022-11-28T03:29:39.703Z,89.64
2022-11-28T03:32:12.130Z,89.33
2022-11-28T03:34:44.781Z,89.69
2022-11-28T03:37:18.292Z,89.65
2022-11-28T03:39:51.717Z,89.16
2022-11-28T03:42:24.872Z,89.42
2022-11-28T03:45:23.474Z,89.02
2022-11-28T03:47:58.332Z,89.07
2022-11-28T03:50:36.538Z,89.35
2022-11-28T03:53:08.763Z,89.62
2022-11-28T03:55:41.687Z,89.80
2022-11-28T03:58:31.741Z,89.96
2022-11-28T04:01:29.593Z,90.34
2022-11-28T04:04:16.407Z,90.81
2022-11-28T04:07:03.658Z,90.87
2022-11-28T04:09:39.882Z,91.09
2022-11-28T04:12:35.373Z,90.57
2022-11-28T04:15:10.237Z,90.82
2022-11-28T04:17:47.599Z,90.85
2022-11-28T04:20:39.464Z,90.54
2022-11-28T04:23:18.515Z,90.56
2022-11-28T04:25:52.889Z,90.58
2022-11-28T04:28:25.031Z,90.62
2022-11-28T04:30:53.844Z,90.60
2022-11-28T04:33:24.212Z,90.57
2022-11-28T04:35:53.269Z,90.69
2022-11-28T04:38:24.183Z,91.15
2022-11-28T04:41:06.981Z,91.11
2022-11-28T04:43:42.338Z,91.41
2022-11-28T04:46:21.882Z,91.50
2022-11-28T04:48:48.729Z,92.09
2022-11-28T04:51:21.292Z,92.18
2022-11-28T04:54:00.152Z,92.23
2022-11-28T04:56:57.652Z,92.20
2022-11-28T04:59:27.213Z,92.35
2022-11-28T05:01:56.209Z,92.33
2022-11-28T05:04:22.941Z,92.12
2022-11-28T05:06:49.842Z,92.21
2022-11-28T05:09:16.818Z,91.90
2022-11-28T05:11:43.543Z,92.05
2022-11-28T05:14:10.311Z,92.17
2022-11-28T05:16:37.029Z,92.27
2022-11-28T05:19:03.863Z,92.06
2022-11-28T05:21:30.658Z,92.10
2022-11-28T05:23:57.449Z,91.92
2022-11-28T05:26:24.247Z,91.83
2022-11-28T05:28:53.316Z,91.77
2022-11-28T05:31:21.526Z,91.69
2022-11-28T05:33:48.342Z,91.47
2022-11-28T05:36:15.974Z,91.36
2022-11-28T05:38:43.873Z,91.26
2022-11-28T05:41:18.083Z,90.95
2022-11-28T05:43:44.752Z,90.94
2022-11-28T05:46:11.555Z,90.86
2022-11-28T05:48:38.476Z,91.03
2022-11-28T05:51:05.751Z,90.90
2022-11-28T05:53:32.741Z,91.17
2022-11-28T05:55:59.948Z,91.18
2022-11-28T05:58:26.652Z,91.22
2022-11-28T06:00:55.796Z,91.34
2022-11-28T06:03:22.856Z,91.36
2022-11-28T06:05:49.656Z,91.24
2022-11-28T06:08:16.743Z,91.19
2022-11-28T06:10:43.589Z,91.40
2022-11-28T06:13:10.298Z,91.48
2022-11-28T06:15:38.548Z,91.22
2022-11-28T06:18:06.505Z,91.67
2022-11-28T06:20:35.872Z,91.55
2022-11-28T06:23:02.571Z,91.80
2022-11-28T06:25:29.811Z,92.27
2022-11-28T06:27:56.584Z,92.01
2022-11-28T06:30:23.286Z,92.02
2022-11-28T06:32:50.033Z,92.30
2022-11-28T06:35:17.020Z,92.40
2022-11-28T06:37:43.757Z,92.36
2022-11-28T06:40:10.727Z,92.12
2022-11-28T06:42:37.573Z,92.12
2022-11-28T06:45:05.836Z,91.90
2022-11-28T06:47:32.811Z,91.84
2022-11-28T06:49:59.504Z,91.70
2022-11-28T06:52:26.615Z,91.48
2022-11-28T06:54:53.424Z,91.23
2022-11-28T06:57:20.164Z,91.22
2022-11-28T06:59:48.791Z,91.18
2022-11-28T07:02:15.674Z,91.31
2022-11-28T07:04:42.391Z,91.35
2022-11-28T07:07:12.518Z,91.64
2022-11-28T07:09:42.002Z,91.64
2022-11-28T07:12:09.088Z,91.72
2022-11-28T07:14:36.861Z,92.07
2022-11-28T07:17:03.729Z,92.29
2022-11-28T07:19:30.504Z,92.29
2022-11-28T07:21:57.333Z,92.37
2022-11-28T07:24:24.207Z,92.53
2022-11-28T07:26:50.915Z,92.43
2022-11-28T07:29:18.864Z,92.33
2022-11-28T07:31:45.802Z,92.65
2022-11-28T07:34:13.122Z,92.47
2022-11-28T07:36:40.004Z,91.72
2022-11-28T07:39:09.054Z,91.59
2022-11-28T07:41:36.079Z,91.22
2022-11-28T07:44:04.489Z,91.14
2022-11-28T07:46:32.334Z,90.98
2022-11-28T07:48:59.297Z,90.88
2022-11-28T07:51:28.830Z,90.61
2022-11-28T07:53:58.772Z,90.61
2022-11-28T07:56:39.489Z,90.62
2022-11-28T07:59:11.525Z,90.71
2022-11-28T08:01:38.611Z,90.58
2022-11-28T08:04:07.464Z,90.66
2022-11-28T08:06:38.281Z,90.73
2022-11-28T08:09:07.104Z,90.79
2022-11-28T08:11:34.601Z,90.77
2022-11-28T08:14:01.966Z,91.26
2022-11-28T08:16:30.409Z,91.12
2022-11-28T08:18:59.760Z,91.25
2022-11-28T08:21:29.903Z,91.35
2022-11-28T08:23:59.633Z,91.13
2022-11-28T08:26:30.379Z,91.17
2022-11-28T08:28:58.675Z,91.21
2022-11-28T08:31:28.919Z,90.56
2022-11-28T08:33:56.796Z,89.77
2022-11-28T08:36:23.880Z,90.82
2022-11-28T08:39:09.483Z,89.98
2022-11-28T08:41:37.933Z,89.06
2022-11-28T08:44:04.826Z,89.20
2022-11-28T08:46:31.571Z,89.03
2022-11-28T08:49:04.186Z,89.13
2022-11-28T08:51:31.722Z,88.77
2022-11-28T08:53:59.810Z,88.89
2022-11-28T08:56:27.477Z,89.22
2022-11-28T08:58:55.082Z,89.13
2022-11-28T09:01:24.996Z,89.28
2022-11-28T09:03:53.177Z,90.32
2022-11-28T09:06:21.200Z,92.11
2022-11-28T09:08:49.224Z,93.00
2022-11-28T09:11:18.159Z,93.30
2022-11-28T09:13:45.724Z,95.20
2022-11-28T09:16:13.085Z,96.62
2022-11-28T09:18:39.959Z,97.18
2022-11-28T09:21:13.120Z,96.36
2022-11-28T09:23:41.473Z,96.41
2022-11-28T09:26:15.301Z,94.92
2022-11-28T09:28:42.511Z,94.40
2022-11-28T09:31:10.127Z,92.68
2022-11-28T09:33:37.220Z,90.88
2022-11-28T09:36:09.538Z,89.93
2022-11-28T09:38:37.225Z,89.17
2022-11-28T09:41:23.468Z,89.24
2022-11-28T09:43:54.704Z,90.71
2022-11-28T09:46:31.495Z,89.64
2022-11-28T09:49:02.308Z,87.69
2022-11-28T09:51:33.489Z,88.45
2022-11-28T09:54:27.795Z,90.25
2022-11-28T09:56:56.917Z,88.67
2022-11-28T09:59:27.583Z,87.94
2022-11-28T10:02:10.369Z,88.35
2022-11-28T10:05:12.509Z,82.87
2022-11-28T10:07:49.032Z,84.81
2022-11-28T10:10:21.678Z,83.20
2022-11-28T10:13:13.989Z,80.93
2022-11-28T10:15:59.538Z,79.94
2022-11-28T10:18:42.556Z,80.19
2022-11-28T10:21:28.205Z,80.77
2022-11-28T10:24:00.261Z,82.49
2022-11-28T10:26:36.001Z,81.54
2022-11-28T10:29:41.604Z,76.66
2022-11-28T10:32:18.095Z,78.42
2022-11-28T10:35:00.810Z,79.05
2022-11-28T10:37:31.392Z,80.98
2022-11-28T10:40:50.509Z,79.32
2022-11-28T10:43:59.613Z,83.31
2022-11-28T10:47:00.640Z,80.41
2022-11-28T10:49:33.843Z,80.95
2022-11-28T10:52:17.514Z,81.55
2022-11-28T10:54:59.420Z,82.46
2022-11-28T10:57:42.905Z,82.04
2022-11-28T11:00:13.759Z,82.59
2022-11-28T11:02:46.359Z,82.88
2022-11-28T11:05:19.815Z,83.76
2022-11-28T11:07:55.498Z,84.05
2022-11-28T11:10:49.751Z,84.48
2022-11-28T11:13:20.879Z,84.78
2022-11-28T11:15:54.750Z,85.21
2022-11-28T11:18:34.735Z,85.64
2022-11-28T11:21:18.067Z,85.90
2022-11-28T11:23:46.101Z,85.99
2022-11-28T11:26:26.325Z,85.90
2022-11-28T11:28:53.517Z,85.80
2022-11-28T11:31:31.073Z,85.72
2022-11-28T11:34:14.665Z,86.11
2022-11-28T11:36:43.036Z,87.18
2022-11-28T11:39:12.809Z,86.68
2022-11-28T11:41:48.275Z,87.40
2022-11-28T11:44:14.959Z,88.69
2022-11-28T11:47:09.178Z,90.80
2022-11-28T11:49:37.475Z,88.88
2022-11-28T11:52:14.203Z,88.45
2022-11-28T11:55:11.684Z,89.64
2022-11-28T11:57:43.740Z,91.58
2022-11-28T12:00:15.256Z,90.42
2022-11-28T12:02:52.384Z,90.16
2022-11-28T12:05:23.332Z,88.73
2022-11-28T12:08:31.873Z,95.40
2022-11-28T12:11:19.643Z,92.40
2022-11-28T12:13:46.954Z,82.50
2022-11-28T12:16:48.680Z,80.56
2022-11-28T12:19:40.185Z,80.02
2022-11-28T12:22:22.053Z,71.89
2022-11-28T12:25:28.171Z,72.99
2022-11-28T12:27:57.539Z,65.86
2022-11-28T12:30:30.146Z,63.93
2022-11-28T12:33:32.343Z,63.87
2022-11-28T12:36:08.386Z,56.11
2022-11-28T12:38:38.247Z,51.58
2022-11-28T12:41:04.971Z,48.02
2022-11-28T12:43:37.422Z,45.37
2022-11-28T12:46:20.364Z,43.66
2022-11-28T12:49:02.039Z,42.14
2022-11-28T12:51:56.653Z,41.08
2022-11-28T12:54:32.524Z,38.60
2022-11-28T12:57:14.638Z,36.56
2022-11-28T13:00:36.956Z,38.02
2022-11-28T13:03:41.768Z,39.06
2022-11-28T13:06:08.494Z,39.84
2022-11-28T13:09:06.770Z,41.24
2022-11-28T13:11:40.152Z,43.01
2022-11-28T13:14:15.645Z,44.52
2022-11-28T13:16:42.566Z,46.05
2022-11-28T13:19:30.590Z,47.02
2022-11-28T13:22:06.467Z,48.30
2022-11-28T13:24:42.454Z,49.07
2022-11-28T13:27:32.481Z,49.43
2022-11-28T13:30:24.003Z,50.88
2022-11-28T13:33:14.466Z,51.64
2022-11-28T13:35:45.532Z,52.00
2022-11-28T13:38:44.126Z,51.85
2022-11-28T13:41:43.885Z,52.94
2022-11-28T13:44:20.886Z,53.56
2022-11-28T13:46:47.921Z,53.99
2022-11-28T13:49:26.697Z,54.12
2022-11-28T13:52:17.921Z,54.67
2022-11-28T13:54:45.910Z,55.32
2022-11-28T13:57:28.203Z,55.52
2022-11-28T14:00:22.663Z,55.58
2022-11-28T14:02:59.121Z,56.60
2022-11-28T14:05:38.417Z,57.13
2022-11-28T14:08:07.382Z,57.54
2022-11-28T14:10:57.960Z,57.61
2022-11-28T14:13:33.754Z,58.20
2022-11-28T14:16:20.906Z,58.20
2022-11-28T14:19:11.809Z,58.49
2022-11-28T14:21:41.546Z,58.45
2022-11-28T14:24:17.576Z,58.30
2022-11-28T14:26:44.917Z,58.27
2022-11-28T14:29:25.213Z,58.26
2022-11-28T14:32:14.148Z,58.58
2022-11-28T14:34:48.822Z,58.69
2022-11-28T14:37:21.862Z,58.60
2022-11-28T14:39:50.261Z,58.74
2022-11-28T14:42:44.149Z,58.58
2022-11-28T14:45:40.334Z,58.91
2022-11-28T14:48:17.363Z,58.48
2022-11-28T14:50:48.363Z,58.94
2022-11-28T14:53:34.180Z,58.69
2022-11-28T14:56:16.124Z,58.70
2022-11-28T14:58:50.437Z,58.70
2022-11-28T15:02:04.630Z,59.36
2022-11-28T15:04:41.658Z,59.87
2022-11-28T15:07:28.835Z,60.48
2022-11-28T15:10:10.196Z,61.12
2022-11-28T15:13:03.441Z,61.06
2022-11-28T15:15:32.161Z,61.14
2022-11-28T15:18:02.097Z,61.60
2022-11-28T15:20:44.232Z,61.69
2022-11-28T15:23:30.569Z,61.39
2022-11-28T15:25:58.906Z,61.27
2022-11-28T15:28:28.730Z,60.97
2022-11-28T15:30:58.066Z,60.90
2022-11-28T15:33:26.934Z,60.48
2022-11-28T15:36:02.522Z,60.25
2022-11-28T15:38:31.704Z,60.10
2022-11-28T15:40:59.632Z,60.39
2022-11-28T15:43:26.774Z,60.08
2022-11-28T15:46:00.343Z,60.10
2022-11-28T15:48:39.792Z,60.54
2022-11-28T15:51:07.630Z,61.32
2022-11-28T15:53:40.894Z,61.42
2022-11-28T15:56:12.828Z,61.42
2022-11-28T15:58:41.271Z,61.78
2022-11-28T16:01:10.965Z,62.15
2022-11-28T16:04:06.153Z,62.18
2022-11-28T16:06:36.371Z,62.60
2022-11-28T16:09:05.914Z,63.20
2022-11-28T16:11:36.237Z,63.23
2022-11-28T16:14:09.803Z,63.43
2022-11-28T16:16:38.457Z,63.50
2022-11-28T16:19:09.074Z,63.53
2022-11-28T16:21:44.136Z,63.61
2022-11-28T16:24:46.901Z,63.34
2022-11-28T16:27:32.790Z,63.48
2022-11-28T16:30:00.886Z,63.42
2022-11-28T16:32:40.884Z,63.33
2022-11-28T16:35:12.593Z,63.47
2022-11-28T16:37:39.720Z,63.69
2022-11-28T16:40:06.876Z,63.72
2022-11-28T16:42:35.211Z,63.79
2022-11-28T16:45:32.872Z,63.91
2022-11-28T16:48:15.203Z,63.94
2022-11-28T16:51:01.893Z,64.20
2022-11-28T16:53:55.687Z,64.37
2022-11-28T16:56:31.615Z,64.48
2022-11-28T16:59:07.468Z,64.50
2022-11-28T17:01:35.435Z,64.63
2022-11-28T17:04:02.750Z,64.68
2022-11-28T17:06:39.355Z,64.83
2022-11-28T17:09:11.832Z,64.92
2022-11-28T17:11:43.988Z,64.97
2022-11-28T17:14:14.354Z,65.07
2022-11-28T17:16:44.209Z,65.35
2022-11-28T17:19:11.091Z,65.46
2022-11-28T17:21:54.480Z,65.67
2022-11-28T17:24:26.938Z,65.83
2022-11-28T17:26:55.112Z,66.08
2022-11-28T17:29:22.691Z,66.14
2022-11-28T17:31:50.399Z,66.12
2022-11-28T17:34:23.316Z,66.40
2022-11-28T17:36:50.803Z,66.80
2022-11-28T17:39:19.146Z,67.10
2022-11-28T17:41:47.245Z,67.13
2022-11-28T17:44:23.766Z,67.28
2022-11-28T17:46:52.230Z,67.64
2022-11-28T17:49:19.499Z,67.75
2022-11-28T17:51:46.263Z,67.82
2022-11-28T17:54:16.848Z,67.80
2022-11-28T17:56:51.703Z,68.07
2022-11-28T17:59:20.683Z,68.21
2022-11-28T18:01:47.857Z,68.21
2022-11-28T18:04:14.770Z,68.43
2022-11-28T18:06:46.312Z,68.41
2022-11-28T18:09:14.072Z,68.64
2022-11-28T18:11:42.556Z,68.64
2022-11-28T18:14:09.873Z,68.88
2022-11-28T18:16:36.937Z,69.10
2022-11-28T18:19:04.731Z,68.99
2022-11-28T18:21:32.395Z,69.04
2022-11-28T18:23:59.159Z,69.05
2022-11-28T18:26:26.883Z,69.07
2022-11-28T18:28:54.207Z,69.10
2022-11-28T18:31:24.795Z,69.11
2022-11-28T18:33:51.668Z,69.17
2022-11-28T18:36:21.859Z,69.02
2022-11-28T18:38:48.810Z,69.47
2022-11-28T18:41:17.695Z,69.13
2022-11-28T18:43:45.094Z,69.18
2022-11-28T18:46:17.724Z,69.04
2022-11-28T18:48:46.668Z,69.54
2022-11-28T18:51:22.344Z,69.27
2022-11-28T18:53:51.287Z,69.30
2022-11-28T18:56:18.564Z,69.51
2022-11-28T18:58:48.722Z,69.64
2022-11-28T19:01:16.564Z,70.28
2022-11-28T19:03:47.877Z,70.06
2022-11-28T19:06:14.793Z,70.20
2022-11-28T19:08:41.663Z,70.28
2022-11-28T19:11:13.308Z,70.27
2022-11-28T19:13:45.481Z,70.10
2022-11-28T19:16:14.104Z,70.55
2022-11-28T19:18:41.569Z,70.27
2022-11-28T19:21:11.340Z,70.66
2022-11-28T19:23:38.735Z,70.90
2022-11-28T19:26:08.432Z,70.90
2022-11-28T19:28:38.111Z,71.29
2022-11-28T19:31:11.251Z,70.98
2022-11-28T19:33:38.795Z,71.19
2022-11-28T19:36:07.505Z,71.24
2022-11-28T19:38:35.751Z,71.57
2022-11-28T19:41:07.323Z,71.78
2022-11-28T19:43:35.387Z,72.13
2022-11-28T19:46:02.572Z,72.32
2022-11-28T19:48:31.323Z,72.03
2022-11-28T19:50:58.372Z,72.04
2022-11-28T19:53:26.222Z,71.83
2022-11-28T19:55:54.330Z,71.78
2022-11-28T19:58:21.576Z,71.64
2022-11-28T20:00:48.495Z,71.88
2022-11-28T20:03:16.426Z,71.60
2022-11-28T20:05:43.417Z,71.87
2022-11-28T20:08:10.205Z,71.90
2022-11-28T20:10:40.170Z,71.92
2022-11-28T20:13:06.913Z,71.99
2022-11-28T20:15:37.873Z,72.11
2022-11-28T20:18:04.866Z,72.11
2022-11-28T20:20:34.053Z,72.35
2022-11-28T20:23:01.801Z,72.44
2022-11-28T20:25:28.927Z,72.47
2022-11-28T20:27:55.667Z,72.48
2022-11-28T20:30:22.413Z,72.77
2022-11-28T20:32:49.186Z,72.84
2022-11-28T20:35:16.158Z,72.80
2022-11-28T20:37:42.929Z,73.11
2022-11-28T20:40:10.256Z,73.13
2022-11-28T20:42:40.027Z,73.29
2022-11-28T20:45:07.553Z,73.83
2022-11-28T20:47:35.160Z,73.59
2022-11-28T20:50:02.455Z,73.75
2022-11-28T20:52:29.167Z,74.00
2022-11-28T20:54:56.123Z,74.00
2022-11-28T20:57:22.856Z,73.91
2022-11-28T20:59:49.652Z,73.81
2022-11-28T21:02:16.511Z,73.68
2022-11-28T21:04:44.403Z,73.79
2022-11-28T21:07:11.103Z,73.91
2022-11-28T21:09:38.156Z,74.10
2022-11-28T21:12:04.955Z,74.35
2022-11-28T21:14:31.659Z,74.57
2022-11-28T21:16:59.280Z,74.75
2022-11-28T21:19:27.115Z,74.74
2022-11-28T21:21:54.429Z,74.60
2022-11-28T21:24:21.284Z,74.55
2022-11-28T21:26:53.559Z,74.59
2022-11-28T21:29:22.245Z,74.60
2022-11-28T21:31:49.096Z,74.81
2022-11-28T21:34:16.980Z,74.78
2022-11-28T21:36:44.481Z,74.78
2022-11-28T21:39:17.215Z,75.04
2022-11-28T21:41:43.951Z,75.72
2022-11-28T21:44:10.978Z,75.94
2022-11-28T21:46:37.804Z,76.18
2022-11-28T21:49:04.522Z,76.36
2022-11-28T21:51:31.443Z,76.80
2022-11-28T21:53:58.262Z,76.94
2022-11-28T21:56:25.917Z,76.78
2022-11-28T21:58:52.846Z,76.89
2022-11-28T22:01:21.418Z,77.07
2022-11-28T22:03:48.369Z,77.46
2022-11-28T22:06:24.263Z,77.73
2022-11-28T22:08:51.714Z,77.78
2022-11-28T22:11:22.248Z,77.75
2022-11-28T22:13:49.716Z,77.92
2022-11-28T22:16:23.485Z,78.27
2022-11-28T22:18:55.380Z,78.39
2022-11-28T22:21:50.600Z,78.55
2022-11-28T22:24:09.715Z,78.97
2022-11-28T22:26:36.710Z,78.76
2022-11-28T22:29:06.957Z,78.88
2022-11-28T22:31:33.566Z,79.95
2022-11-28T22:34:00.555Z,79.59
2022-11-28T22:36:27.394Z,79.78
2022-11-28T22:38:55.911Z,79.65
2022-11-28T22:41:28.226Z,79.80
2022-11-28T22:43:57.173Z,79.93
2022-11-28T22:46:23.949Z,80.00
2022-11-28T22:48:52.997Z,80.17
2022-11-28T22:51:22.710Z,80.56
2022-11-28T22:53:56.345Z,81.15
2022-11-28T22:56:23.452Z,81.67
2022-11-28T22:58:50.439Z,81.46
2022-11-28T23:01:37.475Z,82.10
2022-11-28T23:04:04.523Z,82.52
2022-11-28T23:06:33.906Z,82.72
2022-11-28T23:09:05.504Z,83.19
2022-11-28T23:11:35.283Z,83.44
2022-11-28T23:14:03.041Z,83.50
2022-11-28T23:16:34.391Z,83.45
2022-11-28T23:19:03.753Z,83.52
2022-11-28T23:21:34.189Z,84.05
2022-11-28T23:24:01.513Z,84.29
2022-11-28T23:26:30.768Z,84.27
2022-11-28T23:29:00.713Z,84.42
2022-11-28T23:31:30.011Z,84.50
2022-11-28T23:33:58.099Z,84.22
2022-11-28T23:36:26.485Z,83.83
2022-11-28T23:38:56.219Z,83.65
2022-11-28T23:41:23.875Z,83.50
2022-11-28T23:43:50.681Z,83.24
2022-11-28T23:46:18.655Z,83.27
2022-11-28T23:48:46.148Z,82.99
2022-11-28T23:51:18.352Z,82.55
2022-11-28T23:53:45.412Z,82.58
2022-11-28T23:56:16.017Z,82.34
2022-11-28T23:58:43.074Z,82.37
